Time;durP1;ratioP1;P1;durP2;ratioP2;P2;SDS_P1;SDS_P2;PMS_P1;PMS_P2;Temp;Humidity;BMP_temperature;BMP_pressure;BME280_temperature;BME280_humidity;BME280_pressure;Samples;Min_cycle;Max_cycle;Signal;HPM_P1;HPM_P2
2022/11/11 00:02:24;;;;;;;20.48;7.38;;;7.60;99.90;;;;;;4970335;28;20035;-60
2022/11/11 00:04:50;;;;;;;21.67;8.15;;;7.60;99.90;;;;;;4973708;28;20130;-59
2022/11/11 00:07:15;;;;;;;21.85;7.80;;;7.60;99.90;;;;;;4974849;28;20101;-61
2022/11/11 00:09:41;;;;;;;22.25;7.75;;;7.50;99.90;;;;;;4969440;28;20082;-59
2022/11/11 00:12:06;;;;;;;14.60;6.93;;;7.40;99.90;;;;;;4977307;28;20047;-60
2022/11/11 00:14:32;;;;;;;13.75;7.35;;;7.50;99.90;;;;;;4973527;28;20098;-61
2022/11/11 00:25:12;;;;;;;14.32;5.13;;;7.40;99.90;;;;;;4968009;28;20119;-56
2022/11/11 00:27:38;;;;;;;20.95;8.25;;;7.40;99.90;;;;;;4972917;28;20035;-61
2022/11/11 00:30:04;;;;;;;22.52;8.27;;;7.50;99.90;;;;;;4976668;28;20495;-60
2022/11/11 00:32:32;;;;;;;20.90;10.10;;;7.60;99.90;;;;;;4971488;28;20185;-60
2022/11/11 00:37:45;;;;;;;22.20;8.07;;;7.40;99.90;;;;;;4969941;28;20069;-61
2022/11/11 00:40:11;;;;;;;22.42;8.45;;;7.40;99.90;;;;;;4975254;28;20038;-60
2022/11/11 00:42:37;;;;;;;18.65;7.82;;;7.40;99.90;;;;;;4976203;28;20031;-60
2022/11/11 00:45:04;;;;;;;20.33;8.65;;;7.50;99.90;;;;;;4974600;28;20027;-61
2022/11/11 00:52:59;;;;;;;20.13;8.52;;;7.40;99.90;;;;;;4959294;28;20078;-58
2022/11/11 00:55:24;;;;;;;18.58;8.57;;;7.40;99.90;;;;;;4973256;28;20027;-60
2022/11/11 00:57:50;;;;;;;19.35;8.48;;;7.40;99.90;;;;;;4970880;28;20114;-60
2022/11/11 01:00:15;;;;;;;21.77;8.15;;;7.40;99.90;;;;;;4972133;28;20038;-60
2022/11/11 01:02:41;;;;;;;23.17;7.93;;;7.30;99.90;;;;;;4964957;28;20030;-60
2022/11/11 01:05:07;;;;;;;21.48;7.70;;;7.30;99.90;;;;;;4973963;28;20467;-58
2022/11/11 01:07:32;;;;;;;29.55;8.45;;;7.30;99.90;;;;;;4970485;28;20030;-60
2022/11/11 01:09:58;;;;;;;23.98;10.50;;;7.40;99.90;;;;;;4973894;28;20488;-58
2022/11/11 01:12:23;;;;;;;17.83;8.68;;;7.40;99.90;;;;;;4971292;28;20072;-58
2022/11/11 01:14:49;;;;;;;22.10;7.88;;;7.40;99.90;;;;;;4969716;28;20031;-59
2022/11/11 01:17:15;;;;;;;21.02;8.30;;;7.40;99.90;;;;;;4970515;28;20026;-61
2022/11/11 01:19:40;;;;;;;18.63;8.77;;;7.40;99.90;;;;;;4971525;28;20043;-59
2022/11/11 01:22:05;;;;;;;19.65;8.18;;;7.40;99.90;;;;;;4971373;28;20513;-61
2022/11/11 01:24:31;;;;;;;25.60;7.95;;;7.50;99.90;;;;;;4972557;28;20441;-61
2022/11/11 01:26:57;;;;;;;23.30;8.60;;;7.40;99.90;;;;;;4966623;28;20038;-61
2022/11/11 01:29:22;;;;;;;22.95;8.95;;;7.30;99.90;;;;;;4972659;28;20400;-61
2022/11/11 01:31:48;;;;;;;26.48;8.70;;;7.30;99.90;;;;;;4970044;28;20042;-61
2022/11/11 01:34:13;;;;;;;20.45;8.40;;;7.30;99.90;;;;;;4974777;28;20030;-61
2022/11/11 01:36:39;;;;;;;19.73;8.55;;;7.30;99.90;;;;;;4966160;28;20038;-60
2022/11/11 01:39:04;;;;;;;19.55;9.23;;;7.30;99.90;;;;;;4965144;28;20147;-59
2022/11/11 01:41:33;;;;;;;19.40;7.68;;;7.30;99.90;;;;;;4974837;28;20031;-59
2022/11/11 01:44:11;;;;;;;19.52;7.82;;;7.30;99.90;;;;;;4970209;28;20014;-60
2022/11/11 01:46:58;;;;;;;25.70;8.93;;;7.10;99.90;;;;;;4971983;28;20114;-61
2022/11/11 01:49:47;;;;;;;22.33;8.27;;;7.10;99.90;;;;;;4967897;28;20047;-59
2022/11/11 01:52:32;;;;;;;17.27;8.98;;;7.20;99.90;;;;;;4974184;28;20109;-60
2022/11/11 01:55:02;;;;;;;17.73;7.50;;;7.20;99.90;;;;;;4962948;28;20022;-61
2022/11/11 01:57:33;;;;;;;26.00;8.60;;;7.20;99.90;;;;;;4971951;28;20527;-61
2022/11/11 02:00:04;;;;;;;14.07;7.90;;;7.20;99.90;;;;;;4975016;28;20110;-61
2022/11/11 02:02:57;;;;;;;13.90;7.22;;;7.20;99.90;;;;;;4972130;28;20040;-61
2022/11/11 02:05:42;;;;;;;19.65;7.65;;;7.10;99.90;;;;;;4972102;28;20496;-61
2022/11/11 02:08:31;;;;;;;24.00;8.02;;;7.10;99.90;;;;;;4976682;28;20035;-59
2022/11/11 02:11:03;;;;;;;14.88;6.93;;;7.20;99.90;;;;;;4967906;28;20030;-62
2022/11/11 02:16:14;;;;;;;19.00;8.25;;;7.10;99.90;;;;;;4974700;28;20385;-60
2022/11/11 02:18:41;;;;;;;22.45;7.53;;;7.00;99.90;;;;;;4971887;28;20027;-60
2022/11/11 02:21:12;;;;;;;17.98;6.70;;;7.00;99.90;;;;;;4974689;28;20461;-60
2022/11/11 02:23:51;;;;;;;19.35;7.70;;;7.00;99.90;;;;;;4971835;28;20026;-60
2022/11/11 02:26:17;;;;;;;17.88;8.27;;;7.00;99.90;;;;;;4967270;28;20027;-61
2022/11/11 02:28:44;;;;;;;19.25;7.13;;;7.00;99.90;;;;;;4964387;28;20034;-61
2022/11/11 02:31:09;;;;;;;28.25;8.15;;;6.80;99.90;;;;;;4972475;28;20023;-58
2022/11/11 02:33:35;;;;;;;18.55;7.40;;;6.70;99.90;;;;;;4973215;28;20085;-61
2022/11/11 02:36:01;;;;;;;17.90;8.02;;;6.60;99.90;;;;;;4958310;28;20023;-61
2022/11/11 02:38:27;;;;;;;21.83;8.05;;;6.60;99.90;;;;;;4970948;28;20047;-59
2022/11/11 02:43:37;;;;;;;18.20;7.85;;;6.50;99.90;;;;;;4965341;28;20034;-60
2022/11/11 02:46:05;;;;;;;20.80;7.43;;;6.40;99.90;;;;;;4973501;28;20035;-60
2022/11/11 02:48:31;;;;;;;17.17;8.13;;;6.50;99.90;;;;;;4965948;28;20034;-59
2022/11/11 02:50:56;;;;;;;16.60;7.47;;;6.50;99.90;;;;;;5010178;23;20420;-60
2022/11/11 02:53:22;;;;;;;21.08;8.32;;;6.50;99.90;;;;;;5004957;28;20022;-62
2022/11/11 02:55:48;;;;;;;23.10;8.15;;;6.60;99.90;;;;;;5001669;28;20036;-61
2022/11/11 02:58:15;;;;;;;17.50;8.00;;;6.60;99.90;;;;;;5004050;28;20029;-61
2022/11/11 03:00:41;;;;;;;23.75;9.18;;;6.50;99.90;;;;;;4994755;28;20065;-61
2022/11/11 03:03:07;;;;;;;22.55;8.23;;;6.50;99.90;;;;;;4983774;28;20417;-60
2022/11/11 03:05:34;;;;;;;21.38;8.50;;;6.40;99.90;;;;;;4986860;28;20046;-60
2022/11/11 03:07:59;;;;;;;16.90;8.15;;;6.40;99.90;;;;;;4986922;28;20022;-60
2022/11/11 03:10:25;;;;;;;19.42;7.43;;;6.30;99.90;;;;;;4987879;28;20089;-61
2022/11/11 03:12:50;;;;;;;14.55;7.45;;;6.30;99.90;;;;;;4983460;28;20026;-60
2022/11/11 03:15:16;;;;;;;18.40;7.68;;;6.20;99.90;;;;;;4988096;28;20112;-60
2022/11/11 03:17:41;;;;;;;16.27;8.10;;;6.20;99.90;;;;;;4989492;28;20475;-61
2022/11/11 03:23:07;;;;;;;15.85;7.15;;;6.10;99.90;;;;;;4989754;28;20033;-61
2022/11/11 03:25:36;;;;;;;19.50;8.18;;;6.20;99.90;;;;;;4988793;28;20033;-60
2022/11/11 03:28:03;;;;;;;20.58;6.95;;;6.20;99.90;;;;;;4988998;28;20127;-60
2022/11/11 03:30:29;;;;;;;20.52;8.30;;;6.30;99.90;;;;;;4991014;28;20121;-60
2022/11/11 03:32:54;;;;;;;16.23;8.48;;;6.30;99.90;;;;;;4990499;28;20503;-61
2022/11/11 03:35:19;;;;;;;20.77;6.88;;;6.20;99.90;;;;;;4990583;28;20037;-59
2022/11/11 03:40:29;;;;;;;17.15;7.50;;;6.10;99.90;;;;;;4986157;28;20170;-60
2022/11/11 03:42:55;;;;;;;19.55;7.47;;;6.20;99.90;;;;;;4993506;28;20117;-59
2022/11/11 03:45:21;;;;;;;19.73;7.38;;;6.20;99.90;;;;;;4993110;28;20471;-58
2022/11/11 03:47:46;;;;;;;21.55;7.35;;;6.10;99.90;;;;;;4989440;28;20031;-60
2022/11/11 03:50:12;;;;;;;16.45;6.78;;;5.90;99.90;;;;;;4989496;28;20105;-60
2022/11/11 03:52:42;;;;;;;11.70;6.28;;;5.90;99.90;;;;;;4986769;28;20050;-61
2022/11/11 03:55:08;;;;;;;19.23;7.38;;;5.80;99.90;;;;;;4989984;28;20097;-59
2022/11/11 03:57:37;;;;;;;16.88;8.00;;;5.90;99.90;;;;;;4987126;28;20089;-58
2022/11/11 04:00:04;;;;;;;22.23;8.05;;;6.00;99.90;;;;;;4982061;28;20038;-61
2022/11/11 04:10:42;;;;;;;16.45;7.05;;;6.10;99.90;;;;;;4989869;28;20125;-60
2022/11/11 04:16:08;;;;;;;;;;;6.10;99.90;;;;;;4985474;28;20562;-61
2022/11/11 04:25:47;;;;;;;16.63;6.43;;;5.80;99.90;;;;;;4991590;28;20049;-61
2022/11/11 04:26:49;;;;;;;16.85;6.85;;;5.70;99.90;;;;;;4983368;28;20092;-58
2022/11/11 04:29:27;;;;;;;16.65;7.25;;;5.70;99.90;;;;;;4972275;28;20049;-60
2022/11/11 04:34:37;;;;;;;18.45;7.50;;;5.80;99.90;;;;;;4986937;28;20110;-60
2022/11/11 04:37:02;;;;;;;17.40;6.75;;;5.90;99.90;;;;;;4988781;28;20101;-59
2022/11/11 04:42:12;;;;;;;17.35;7.13;;;6.00;99.90;;;;;;4988825;28;20153;-60
2022/11/11 04:47:21;;;;;;;12.77;6.38;;;6.10;99.90;;;;;;4988432;28;20049;-61
2022/11/11 04:49:47;;;;;;;23.35;7.03;;;6.10;99.90;;;;;;4989595;28;20034;-59
2022/11/11 04:52:28;;;;;;;20.58;7.25;;;6.10;99.90;;;;;;4988195;28;20600;-60
2022/11/11 04:57:45;;;;;;;19.38;7.30;;;6.10;99.90;;;;;;4986533;28;20467;-59
2022/11/11 05:00:16;;;;;;;13.23;6.95;;;6.20;99.90;;;;;;4988571;28;20694;-59
2022/11/11 05:05:27;;;;;;;14.70;7.45;;;6.10;99.90;;;;;;4985248;28;20040;-61
2022/11/11 05:10:37;;;;;;;10.65;5.40;;;5.70;99.90;;;;;;4984334;28;20150;-59
2022/11/11 05:21:24;;;;;;;14.10;6.82;;;5.50;99.90;;;;;;4988682;28;20085;-60
2022/11/11 05:26:34;;;;;;;18.70;6.22;;;5.70;99.90;;;;;;4984406;28;20396;-58
2022/11/11 05:29:00;;;;;;;17.92;7.82;;;5.70;99.90;;;;;;4988304;28;20038;-60
2022/11/11 05:31:26;;;;;;;17.65;6.50;;;5.80;99.90;;;;;;4987170;28;20105;-60
2022/11/11 05:33:51;;;;;;;20.83;7.38;;;5.80;99.90;;;;;;4987739;28;20483;-60
2022/11/11 05:36:17;;;;;;;19.55;7.25;;;5.90;99.90;;;;;;4990115;28;20118;-60
2022/11/11 05:38:42;;;;;;;17.42;7.38;;;5.90;99.90;;;;;;4990909;28;20106;-60
2022/11/11 05:41:08;;;;;;;15.18;6.75;;;5.80;99.90;;;;;;4991903;28;20113;-60
2022/11/11 05:43:34;;;;;;;14.65;6.55;;;5.80;99.90;;;;;;4986297;28;20088;-61
2022/11/11 05:45:59;;;;;;;16.90;7.03;;;5.70;99.90;;;;;;4991901;28;20133;-61
2022/11/11 05:48:25;;;;;;;12.23;6.78;;;5.80;99.90;;;;;;4992941;28;20603;-62
2022/11/11 05:50:50;;;;;;;20.45;6.20;;;5.80;99.90;;;;;;4985751;28;20038;-59
2022/11/11 05:53:22;;;;;;;19.38;6.88;;;5.80;99.90;;;;;;4990074;28;20030;-59
2022/11/11 05:55:49;;;;;;;17.85;7.45;;;5.70;99.90;;;;;;4991813;28;20072;-61
2022/11/11 05:58:16;;;;;;;20.83;8.13;;;5.70;99.90;;;;;;4986735;28;20018;-61
2022/11/11 06:00:42;;;;;;;17.20;8.18;;;5.80;99.90;;;;;;4978774;28;20034;-60
2022/11/11 06:03:07;;;;;;;13.98;7.15;;;5.80;99.90;;;;;;4980113;28;20045;-61
2022/11/11 06:05:35;;;;;;;22.42;8.13;;;5.80;99.90;;;;;;4986165;28;20034;-60
2022/11/11 06:08:01;;;;;;;24.15;7.25;;;5.90;99.90;;;;;;4990558;28;20033;-61
2022/11/11 06:10:29;;;;;;;21.30;7.38;;;5.90;99.90;;;;;;4991155;28;20035;-61
2022/11/11 06:13:04;;;;;;;20.33;8.23;;;5.90;99.90;;;;;;4991507;28;20392;-61
2022/11/11 06:15:33;;;;;;;;;;;5.90;99.90;;;;;;4991213;28;20057;-60
2022/11/11 06:17:59;;;;;;;17.85;8.02;;;6.00;99.90;;;;;;4984414;28;19913;-61
2022/11/11 06:20:25;;;;;;;20.77;7.85;;;6.00;99.90;;;;;;4991020;28;20045;-61
2022/11/11 06:22:56;;;;;;;15.50;7.82;;;6.10;99.90;;;;;;4989934;28;20043;-61
2022/11/11 06:28:18;;;;;;;23.08;9.00;;;6.20;99.90;;;;;;4991968;28;20060;-60
2022/11/11 06:30:44;;;;;;;23.95;9.23;;;6.30;99.90;;;;;;4988223;28;20041;-62
2022/11/11 06:33:10;;;;;;;21.88;8.43;;;6.30;99.90;;;;;;4995521;28;20522;-61
2022/11/11 06:35:38;;;;;;;21.63;8.48;;;6.30;99.90;;;;;;4991104;28;20027;-60
2022/11/11 06:38:05;;;;;;;19.65;8.18;;;6.40;99.90;;;;;;4990964;28;20026;-61
2022/11/11 06:40:31;;;;;;;24.48;9.45;;;6.40;99.90;;;;;;4991283;28;20029;-61
2022/11/11 06:43:00;;;;;;;22.45;9.55;;;6.40;99.90;;;;;;4991285;28;20045;-61
2022/11/11 06:45:28;;;;;;;25.67;9.02;;;6.40;99.90;;;;;;4991214;28;20504;-61
2022/11/11 06:47:53;;;;;;;21.60;9.27;;;6.40;99.90;;;;;;4991088;28;20077;-60
2022/11/11 06:50:20;;;;;;;21.63;8.40;;;6.40;99.90;;;;;;4992050;28;20034;-62
2022/11/11 06:52:45;;;;;;;19.90;9.48;;;6.40;99.90;;;;;;4993992;28;20109;-61
2022/11/11 06:55:11;;;;;;;23.08;9.70;;;6.40;99.90;;;;;;4994759;28;20113;-61
2022/11/11 06:57:37;;;;;;;21.08;9.48;;;6.50;99.90;;;;;;4995424;28;20418;-61
2022/11/11 07:00:05;;;;;;;24.48;9.77;;;6.50;99.90;;;;;;4995162;28;20026;-61
2022/11/11 07:02:30;;;;;;;22.95;9.07;;;6.50;99.90;;;;;;4977401;28;20101;-62
2022/11/11 07:04:56;;;;;;;18.77;9.43;;;6.50;99.90;;;;;;4994831;28;20026;-62
2022/11/11 07:07:21;;;;;;;25.13;9.77;;;6.50;99.90;;;;;;4994481;28;20034;-62
2022/11/11 07:09:47;;;;;;;27.85;10.23;;;6.50;99.90;;;;;;4994545;28;20551;-61
2022/11/11 07:12:13;;;;;;;24.60;9.88;;;6.50;99.90;;;;;;4994966;28;20022;-62
2022/11/11 07:14:39;;;;;;;20.42;8.80;;;6.50;99.90;;;;;;4994504;28;20026;-61
2022/11/11 07:17:04;;;;;;;20.30;9.63;;;6.60;99.90;;;;;;4994838;28;20029;-61
2022/11/11 07:19:30;;;;;;;27.25;9.95;;;6.60;99.90;;;;;;4994746;28;20037;-61
2022/11/11 07:21:55;;;;;;;29.83;10.48;;;6.70;99.90;;;;;;4994478;28;20041;-62
2022/11/11 07:24:21;;;;;;;24.60;9.65;;;6.70;99.90;;;;;;4994641;28;20084;-61
2022/11/11 07:26:47;;;;;;;22.40;9.82;;;6.70;99.90;;;;;;4994581;28;20038;-61
2022/11/11 07:29:14;;;;;;;31.63;9.85;;;6.70;99.90;;;;;;4994851;28;20029;-62
2022/11/11 07:31:40;;;;;;;23.92;9.98;;;6.70;99.90;;;;;;4994397;28;20014;-61
2022/11/11 07:34:05;;;;;;;24.02;10.52;;;6.80;99.90;;;;;;4994655;28;20031;-61
2022/11/11 07:36:31;;;;;;;38.35;11.50;;;6.80;99.90;;;;;;4994403;28;20069;-62
2022/11/11 07:38:56;;;;;;;26.38;9.90;;;6.80;99.90;;;;;;4994484;28;20421;-62
2022/11/11 07:41:22;;;;;;;24.83;10.10;;;6.80;99.90;;;;;;4994832;28;20118;-61
2022/11/11 07:43:47;;;;;;;24.10;9.18;;;6.90;99.90;;;;;;4993925;28;20062;-61
2022/11/11 07:46:13;;;;;;;30.33;10.38;;;7.00;99.90;;;;;;4994366;28;20069;-62
2022/11/11 07:48:39;;;;;;;23.58;11.07;;;7.00;99.90;;;;;;4993746;28;20944;-62
2022/11/11 07:51:05;;;;;;;27.08;11.10;;;7.00;99.90;;;;;;4993513;28;20030;-61
2022/11/11 07:53:31;;;;;;;28.65;10.20;;;7.10;99.90;;;;;;4993226;28;20062;-62
2022/11/11 07:55:56;;;;;;;22.45;10.55;;;7.10;99.90;;;;;;4976333;28;20060;-62
2022/11/11 07:58:22;;;;;;;26.48;10.68;;;7.20;99.90;;;;;;4988427;28;20026;-62
2022/11/11 08:00:47;;;;;;;26.52;10.05;;;7.30;99.90;;;;;;4993820;28;20030;-62
2022/11/11 08:03:13;;;;;;;24.13;12.63;;;7.30;99.90;;;;;;4986733;28;20760;-62
2022/11/11 08:05:38;;;;;;;40.63;12.52;;;7.30;99.90;;;;;;4988775;28;20084;-62
2022/11/11 08:08:06;;;;;;;27.20;11.20;;;7.40;99.90;;;;;;4992945;28;20113;-61
2022/11/11 08:10:32;;;;;;;22.33;9.25;;;7.40;99.90;;;;;;4993428;28;20109;-62
2022/11/11 08:15:41;;;;;;;28.50;9.60;;;7.50;99.90;;;;;;4994040;28;20073;-62
2022/11/11 08:18:07;;;;;;;26.35;10.68;;;7.60;99.90;;;;;;4991449;28;20026;-60
2022/11/11 08:20:33;;;;;;;32.45;10.90;;;7.60;99.90;;;;;;4992428;28;20497;-62
2022/11/11 08:22:59;;;;;;;25.50;10.93;;;7.70;99.90;;;;;;4993611;28;20030;-62
2022/11/11 08:25:25;;;;;;;31.83;11.60;;;7.70;99.90;;;;;;4993320;28;20526;-61
2022/11/11 08:28:00;;;;;;;29.30;11.00;;;7.80;99.90;;;;;;4993718;28;20475;-62
2022/11/11 08:30:26;;;;;;;23.70;10.75;;;7.90;99.90;;;;;;4993221;28;20455;-62
2022/11/11 08:32:59;;;;;;;30.60;11.90;;;8.00;99.90;;;;;;4993402;28;20101;-62
2022/11/11 08:35:24;;;;;;;31.92;12.38;;;8.00;99.90;;;;;;4992229;28;20041;-61
2022/11/11 08:37:50;;;;;;;35.83;12.32;;;8.10;99.90;;;;;;4993277;28;20380;-61
2022/11/11 08:40:16;;;;;;;32.78;12.82;;;8.10;99.90;;;;;;4993233;28;20041;-61
2022/11/11 08:42:41;;;;;;;31.85;12.35;;;8.20;99.90;;;;;;4993119;28;20113;-62
2022/11/11 08:45:08;;;;;;;27.85;10.93;;;8.30;99.90;;;;;;4992889;28;20441;-62
2022/11/11 08:47:34;;;;;;;26.48;10.43;;;8.30;99.90;;;;;;4992532;28;20101;-62
2022/11/11 08:52:32;;;;;;;24.80;9.95;;;8.50;99.90;;;;;;5020963;23;20460;-63
2022/11/11 08:55:00;;;;;;;24.02;9.95;;;8.50;99.90;;;;;;4975849;28;20061;-64
2022/11/11 08:57:26;;;;;;;22.20;10.13;;;8.60;99.90;;;;;;5008735;28;20018;-62
2022/11/11 08:59:51;;;;;;;24.40;10.75;;;8.70;99.90;;;;;;5011044;28;20108;-62
2022/11/11 09:02:17;;;;;;;27.48;11.02;;;8.70;99.90;;;;;;5011223;28;20038;-63
2022/11/11 09:04:42;;;;;;;19.40;9.30;;;8.80;99.90;;;;;;5002162;28;20030;-62
2022/11/11 09:07:10;;;;;;;21.42;10.68;;;8.90;99.90;;;;;;5010980;28;20475;-62
2022/11/11 09:09:35;;;;;;;20.95;9.65;;;8.90;99.90;;;;;;5010580;28;20385;-62
2022/11/11 09:12:01;;;;;;;24.83;11.07;;;9.00;99.90;;;;;;5010896;28;20037;-62
2022/11/11 09:14:27;;;;;;;22.58;11.02;;;9.00;99.90;;;;;;5010998;28;20068;-62
2022/11/11 09:16:52;;;;;;;28.17;11.23;;;9.10;99.90;;;;;;5008026;28;20054;-62
2022/11/11 09:19:18;;;;;;;24.35;10.70;;;9.10;99.90;;;;;;5008726;28;20516;-63
2022/11/11 09:21:43;;;;;;;27.88;10.82;;;9.10;99.90;;;;;;5010593;28;20037;-63
2022/11/11 09:24:09;;;;;;;25.92;11.18;;;9.20;99.90;;;;;;5010394;28;20098;-63
2022/11/11 09:26:35;;;;;;;18.83;8.55;;;9.20;99.90;;;;;;5010933;28;20080;-62
2022/11/11 09:29:00;;;;;;;29.65;11.98;;;9.30;99.90;;;;;;5010616;28;20076;-63
2022/11/11 09:31:26;;;;;;;23.98;9.52;;;9.40;99.90;;;;;;5006617;28;20026;-62
2022/11/11 09:33:51;;;;;;;24.10;10.30;;;9.40;99.90;;;;;;5010184;28;20030;-63
2022/11/11 09:36:17;;;;;;;29.52;10.15;;;9.50;99.90;;;;;;5010038;28;20026;-63
2022/11/11 09:38:43;;;;;;;21.67;9.48;;;9.50;99.90;;;;;;5010393;28;20127;-63
2022/11/11 09:41:20;;;;;;;19.77;8.70;;;9.60;99.90;;;;;;4992667;28;20141;-61
2022/11/11 09:43:55;;;;;;;23.45;9.55;;;9.70;99.90;;;;;;5009946;28;20396;-63
2022/11/11 09:46:41;;;;;;;22.83;9.43;;;9.80;99.90;;;;;;5007282;28;20057;-62
2022/11/11 09:49:31;;;;;;;21.00;8.63;;;9.90;99.90;;;;;;5009856;28;20029;-63
2022/11/11 09:52:18;;;;;;;22.55;8.55;;;10.00;99.90;;;;;;4992362;28;20027;-63
2022/11/11 09:55:02;;;;;;;18.48;7.97;;;10.10;99.90;;;;;;4990822;28;20026;-63
2022/11/11 09:57:40;;;;;;;21.00;7.70;;;10.10;99.90;;;;;;4991559;28;20036;-63
2022/11/11 10:00:24;;;;;;;16.88;7.93;;;10.20;99.90;;;;;;4988502;28;20400;-64
2022/11/11 10:02:54;;;;;;;20.05;7.80;;;10.30;99.90;;;;;;5010691;28;20025;-63
2022/11/11 10:05:27;;;;;;;17.55;8.27;;;10.40;99.90;;;;;;5007743;28;20127;-64
2022/11/11 10:08:08;;;;;;;16.50;7.43;;;10.50;99.90;;;;;;5006993;28;20490;-64
2022/11/11 10:10:46;;;;;;;19.73;7.45;;;10.60;99.90;;;;;;5009850;28;20026;-64
2022/11/11 10:13:28;;;;;;;22.00;7.38;;;10.70;99.90;;;;;;5010173;28;20510;-64
2022/11/11 10:16:02;;;;;;;19.80;7.22;;;10.80;99.90;;;;;;4986773;28;20109;-64
2022/11/11 10:18:55;;;;;;;20.05;7.07;;;10.90;99.90;;;;;;5002017;28;20030;-63
2022/11/11 10:21:36;;;;;;;16.92;6.95;;;11.00;99.90;;;;;;5009366;28;20034;-64
2022/11/11 10:24:10;;;;;;;17.27;7.13;;;11.10;99.90;;;;;;5009758;28;20597;-63
2022/11/11 10:26:39;;;;;;;14.00;6.47;;;11.20;99.90;;;;;;5008865;28;20072;-63
2022/11/11 10:29:18;;;;;;;16.65;6.90;;;11.30;99.90;;;;;;5006672;28;20515;-64
2022/11/11 10:32:00;;;;;;;15.20;5.68;;;11.40;99.90;;;;;;5009660;28;20029;-64
2022/11/11 10:34:31;;;;;;;14.13;6.03;;;11.40;99.90;;;;;;5009871;28;20017;-63
2022/11/11 10:36:58;;;;;;;16.48;6.15;;;11.60;99.90;;;;;;5005009;28;20563;-63
2022/11/11 10:39:49;;;;;;;17.30;6.50;;;11.60;99.90;;;;;;5005314;28;20421;-63
2022/11/11 10:42:16;;;;;;;13.20;5.35;;;11.70;99.90;;;;;;4992963;28;20404;-64
2022/11/11 10:44:43;;;;;;;12.38;6.28;;;11.80;99.90;;;;;;4977170;28;20088;-64
2022/11/11 10:47:34;;;;;;;15.48;5.95;;;11.90;99.90;;;;;;4996244;28;20046;-64
2022/11/11 10:50:14;;;;;;;8.80;4.72;;;12.00;99.90;;;;;;4994545;28;20043;-64
2022/11/11 10:52:47;;;;;;;11.80;5.18;;;12.20;99.90;;;;;;4994433;28;20084;-63
2022/11/11 10:55:25;;;;;;;12.73;5.38;;;12.30;99.90;;;;;;4995664;28;20058;-64
2022/11/11 10:58:19;;;;;;;15.10;5.38;;;12.40;99.90;;;;;;4999426;28;20118;-64
2022/11/11 11:00:47;;;;;;;12.50;4.43;;;12.60;99.90;;;;;;5000925;28;20054;-63
2022/11/11 11:03:22;;;;;;;22.55;4.97;;;12.90;99.90;;;;;;4995807;28;20117;-63
2022/11/11 11:05:52;;;;;;;10.27;4.60;;;13.00;99.90;;;;;;4996624;28;20042;-63
2022/11/11 11:08:34;;;;;;;10.32;4.65;;;13.20;99.90;;;;;;4998320;28;20030;-63
2022/11/11 11:11:06;;;;;;;14.07;5.30;;;13.40;99.90;;;;;;4997960;28;20099;-62
2022/11/11 11:14:22;;;;;;;7.10;4.03;;;13.50;99.90;;;;;;5003068;28;20029;-63
2022/11/11 11:16:54;;;;;;;12.30;4.03;;;13.60;99.90;;;;;;4968781;28;20150;-64
2022/11/11 11:19:22;;;;;;;11.15;4.38;;;13.60;99.90;;;;;;4992309;28;20034;-64
2022/11/11 11:21:50;;;;;;;8.88;3.85;;;13.70;99.90;;;;;;4996116;28;20030;-64
2022/11/11 11:24:20;;;;;;;8.65;3.35;;;13.80;99.90;;;;;;5004957;28;20026;-64
2022/11/11 11:26:50;;;;;;;14.80;3.90;;;13.90;99.90;;;;;;5009299;28;20084;-64
2022/11/11 11:29:25;;;;;;;14.45;3.80;;;13.80;99.90;;;;;;5001095;28;20081;-63
2022/11/11 11:31:51;;;;;;;10.18;3.15;;;13.80;99.90;;;;;;4992143;28;20400;-64
2022/11/11 11:34:17;;;;;;;10.35;2.67;;;13.90;99.90;;;;;;4992980;28;20026;-62
2022/11/11 11:36:42;;;;;;;6.50;2.88;;;13.90;99.90;;;;;;4990469;28;20018;-64
2022/11/11 11:39:08;;;;;;;7.72;2.47;;;14.00;99.90;;;;;;4993621;28;20116;-64
2022/11/11 11:41:40;;;;;;;9.32;3.03;;;14.00;99.90;;;;;;4999410;28;20054;-64
2022/11/11 11:44:26;;;;;;;6.72;2.47;;;14.10;99.90;;;;;;4994135;28;20105;-64
2022/11/11 11:46:56;;;;;;;7.18;2.70;;;14.30;99.90;;;;;;4993339;28;20396;-64
2022/11/11 11:49:40;;;;;;;15.65;3.67;;;14.40;99.90;;;;;;4995792;28;20030;-64
2022/11/11 11:52:19;;;;;;;6.55;2.25;;;14.50;99.90;;;;;;4987202;28;20081;-64
2022/11/11 11:55:13;;;;;;;8.45;2.65;;;14.60;99.90;;;;;;4993299;28;20061;-64
2022/11/11 11:57:51;;;;;;;11.77;2.88;;;14.70;99.90;;;;;;4975932;28;21827;-64
2022/11/11 12:00:19;;;;;;;10.35;2.35;;;14.70;99.90;;;;;;4994446;28;20022;-64
2022/11/11 12:03:23;;;;;;;9.32;2.35;;;14.90;99.90;;;;;;4999001;28;20026;-64
2022/11/11 12:05:58;;;;;;;8.10;2.17;;;14.90;99.90;;;;;;4977010;28;20038;-64
2022/11/11 12:08:46;;;;;;;3.63;1.98;;;14.90;99.90;;;;;;5002211;28;20551;-63
2022/11/11 12:11:35;;;;;;;4.40;1.75;;;14.80;99.90;;;;;;4997984;28;20040;-64
2022/11/11 12:14:03;;;;;;;5.28;1.85;;;14.80;99.90;;;;;;4984703;28;20057;-64
2022/11/11 12:16:45;;;;;;;11.45;2.10;;;14.80;99.90;;;;;;5004518;28;20403;-63
2022/11/11 12:19:25;;;;;;;5.82;1.80;;;15.00;99.90;;;;;;5009402;28;20026;-62
2022/11/11 12:22:10;;;;;;;7.93;1.92;;;15.10;99.90;;;;;;4986980;28;20046;-63
2022/11/11 12:25:26;;;;;;;3.72;1.88;;;15.20;99.90;;;;;;4988081;28;20069;-64
2022/11/11 12:28:04;;;;;;;6.53;1.90;;;15.00;99.90;;;;;;4912919;29;20055;-64
2022/11/11 12:30:32;;;;;;;5.40;2.50;;;15.10;99.90;;;;;;4913231;29;20104;-64
2022/11/11 12:33:47;;;;;;;7.35;2.10;;;15.20;99.90;;;;;;4959090;28;20045;-64
2022/11/11 12:36:28;;;;;;;;;;;15.20;99.90;;;;;;4957643;28;20046;-64
2022/11/11 12:39:00;;;;;;;10.25;2.58;;;15.10;99.90;;;;;;4992913;28;19912;-64
2022/11/11 12:41:29;;;;;;;4.35;1.85;;;15.00;99.90;;;;;;4991339;28;20050;-64
2022/11/11 12:44:16;;;;;;;11.02;1.80;;;14.90;99.90;;;;;;4998941;28;20052;-63
2022/11/11 12:47:04;;;;;;;5.63;1.80;;;14.90;99.90;;;;;;4992232;28;20030;-64
2022/11/11 12:49:49;;;;;;;14.23;2.30;;;14.90;99.90;;;;;;4994895;28;20116;-64
2022/11/11 12:52:45;;;;;;;6.50;1.92;;;15.00;99.90;;;;;;5004629;28;20138;-64
2022/11/11 12:55:35;;;;;;;4.88;1.48;;;14.90;99.90;;;;;;4993702;28;20113;-64
2022/11/11 12:58:28;;;;;;;7.85;2.03;;;15.00;99.90;;;;;;4997526;28;20030;-64
2022/11/11 13:01:19;;;;;;;4.03;1.52;;;14.90;99.90;;;;;;4985913;28;20041;-61
2022/11/11 13:04:08;;;;;;;8.55;1.67;;;15.00;99.90;;;;;;4990406;28;20030;-61
2022/11/11 13:06:42;;;;;;;9.80;1.67;;;15.20;99.90;;;;;;4983815;28;20110;-61
2022/11/11 13:09:19;;;;;;;7.05;1.88;;;15.20;99.90;;;;;;4996352;28;20030;-61
2022/11/11 13:11:56;;;;;;;7.18;1.48;;;15.30;99.90;;;;;;4994470;28;20044;-61
2022/11/11 13:14:46;;;;;;;3.17;1.55;;;15.40;99.90;;;;;;4987340;28;20423;-60
2022/11/11 13:17:13;;;;;;;4.07;1.30;;;15.50;99.90;;;;;;4985273;28;20030;-61
2022/11/11 13:19:46;;;;;;;4.15;1.45;;;15.60;99.90;;;;;;4997603;28;20504;-61
2022/11/11 13:22:16;;;;;;;5.53;1.25;;;15.50;99.90;;;;;;4994157;28;20544;-60
2022/11/11 13:24:41;;;;;;;5.68;1.23;;;15.60;99.90;;;;;;4990721;28;20120;-61
2022/11/11 13:27:17;;;;;;;9.27;1.60;;;15.70;99.90;;;;;;5004229;28;20507;-61
2022/11/11 13:30:18;;;;;;;4.45;1.50;;;15.80;99.90;;;;;;4987113;28;20101;-61
2022/11/11 13:32:57;;;;;;;4.68;1.50;;;15.60;99.90;;;;;;4990752;28;20814;-61
2022/11/11 13:35:35;;;;;;;8.52;1.52;;;15.50;99.90;;;;;;4983522;28;20870;-61
2022/11/11 13:38:03;;;;;;;5.88;1.50;;;15.60;99.90;;;;;;4999312;28;20518;-60
2022/11/11 13:40:33;;;;;;;8.65;1.33;;;15.50;99.90;;;;;;4989775;28;20038;-61
2022/11/11 13:42:59;;;;;;;5.03;1.58;;;15.50;99.90;;;;;;4989119;28;20109;-61
2022/11/11 13:45:38;;;;;;;9.60;1.48;;;15.30;99.90;;;;;;4994227;28;20026;-60
2022/11/11 13:48:05;;;;;;;5.88;1.15;;;15.40;99.90;;;;;;4996099;28;20035;-61
2022/11/11 13:50:35;;;;;;;3.08;1.15;;;15.30;99.90;;;;;;4988580;28;20046;-62
2022/11/11 13:53:06;;;;;;;6.88;1.48;;;15.30;99.90;;;;;;4988243;28;20458;-62
2022/11/11 13:55:36;;;;;;;7.20;1.27;;;15.40;99.90;;;;;;4995250;28;20034;-61
2022/11/11 13:58:04;;;;;;;4.28;1.35;;;15.40;99.90;;;;;;4990247;28;20423;-61
2022/11/11 14:00:35;;;;;;;4.15;1.38;;;15.50;99.90;;;;;;4985571;28;20056;-61
2022/11/11 14:03:16;;;;;;;4.63;1.35;;;15.60;99.90;;;;;;4991441;28;20856;-61
2022/11/11 14:05:42;;;;;;;2.72;1.08;;;15.60;99.90;;;;;;4995874;28;20057;-61
2022/11/11 14:08:09;;;;;;;7.22;1.58;;;15.70;99.90;;;;;;4993486;28;20038;-61
2022/11/11 14:10:34;;;;;;;6.60;1.60;;;15.60;99.90;;;;;;4997268;28;20034;-61
2022/11/11 14:13:22;;;;;;;3.53;1.35;;;15.60;99.90;;;;;;4996189;28;20037;-61
2022/11/11 14:15:51;;;;;;;5.85;1.23;;;15.50;99.90;;;;;;4994067;28;20030;-61
2022/11/11 14:18:17;;;;;;;3.55;1.40;;;15.60;99.90;;;;;;4990830;28;20037;-61
2022/11/11 14:20:48;;;;;;;3.88;1.20;;;15.60;99.90;;;;;;4991416;28;20030;-61
2022/11/11 14:23:34;;;;;;;7.38;1.27;;;15.40;99.90;;;;;;4990659;28;20046;-60
2022/11/11 14:26:05;;;;;;;4.40;1.40;;;15.30;99.90;;;;;;5004933;28;20034;-62